sensor_id;sensor_type;location;lat;lon;timestamp;P1;durP1;ratioP1;P2;durP2;ratioP2
19280;SDS011;9774;52.034;5.342;2023-08-08T00:02:24;2.72;;;1.35;;
19280;SDS011;9774;52.034;5.342;2023-08-08T00:04:52;3.97;;;1.23;;
19280;SDS011;9774;52.034;5.342;2023-08-08T00:07:20;3.85;;;1.88;;
19280;SDS011;9774;52.034;5.342;2023-08-08T00:09:47;3.33;;;1.42;;
19280;SDS011;9774;52.034;5.342;2023-08-08T00:12:14;2.50;;;1.10;;
19280;SDS011;9774;52.034;5.342;2023-08-08T00:14:41;3.50;;;1.30;;
19280;SDS011;9774;52.034;5.342;2023-08-08T00:17:08;3.75;;;1.17;;
19280;SDS011;9774;52.034;5.342;2023-08-08T00:19:35;3.30;;;1.25;;
19280;SDS011;9774;52.034;5.342;2023-08-08T00:22:03;2.78;;;1.00;;
19280;SDS011;9774;52.034;5.342;2023-08-08T00:24:31;3.60;;;1.65;;
19280;SDS011;9774;52.034;5.342;2023-08-08T00:26:58;2.53;;;1.35;;
19280;SDS011;9774;52.034;5.342;2023-08-08T00:29:25;1.85;;;0.90;;
19280;SDS011;9774;52.034;5.342;2023-08-08T00:31:52;11.02;;;1.23;;
19280;SDS011;9774;52.034;5.342;2023-08-08T00:34:19;7.18;;;1.50;;
19280;SDS011;9774;52.034;5.342;2023-08-08T00:36:46;3.67;;;1.50;;
19280;SDS011;9774;52.034;5.342;2023-08-08T00:39:13;2.58;;;1.10;;
19280;SDS011;9774;52.034;5.342;2023-08-08T00:41:41;2.47;;;1.30;;
19280;SDS011;9774;52.034;5.342;2023-08-08T00:44:08;1.95;;;1.20;;
19280;SDS011;9774;52.034;5.342;2023-08-08T00:46:36;3.05;;;1.63;;
19280;SDS011;9774;52.034;5.342;2023-08-08T00:49:03;4.65;;;1.50;;
19280;SDS011;9774;52.034;5.342;2023-08-08T00:51:30;3.05;;;1.27;;
19280;SDS011;9774;52.034;5.342;2023-08-08T00:53:59;2.90;;;1.20;;
19280;SDS011;9774;52.034;5.342;2023-08-08T00:56:26;3.97;;;1.30;;
19280;SDS011;9774;52.034;5.342;2023-08-08T00:58:54;3.70;;;1.38;;
19280;SDS011;9774;52.034;5.342;2023-08-08T01:01:21;4.68;;;1.23;;
19280;SDS011;9774;52.034;5.342;2023-08-08T01:03:48;6.03;;;1.67;;
19280;SDS011;9774;52.034;5.342;2023-08-08T01:06:22;2.95;;;1.08;;
19280;SDS011;9774;52.034;5.342;2023-08-08T01:08:58;3.20;;;1.40;;
19280;SDS011;9774;52.034;5.342;2023-08-08T01:11:31;3.42;;;1.13;;
19280;SDS011;9774;52.034;5.342;2023-08-08T01:14:02;2.72;;;1.20;;
19280;SDS011;9774;52.034;5.342;2023-08-08T01:16:32;2.53;;;1.30;;
19280;SDS011;9774;52.034;5.342;2023-08-08T01:18:59;3.97;;;1.50;;
19280;SDS011;9774;52.034;5.342;2023-08-08T01:21:27;3.65;;;1.55;;
19280;SDS011;9774;52.034;5.342;2023-08-08T01:24:00;2.38;;;0.93;;
19280;SDS011;9774;52.034;5.342;2023-08-08T01:26:43;4.43;;;1.40;;
19280;SDS011;9774;52.034;5.342;2023-08-08T01:29:10;2.78;;;1.20;;
19280;SDS011;9774;52.034;5.342;2023-08-08T01:31:37;3.55;;;1.52;;
19280;SDS011;9774;52.034;5.342;2023-08-08T01:34:04;4.47;;;1.40;;
19280;SDS011;9774;52.034;5.342;2023-08-08T01:36:32;3.35;;;1.65;;
19280;SDS011;9774;52.034;5.342;2023-08-08T01:39:07;2.58;;;0.95;;
19280;SDS011;9774;52.034;5.342;2023-08-08T01:41:43;6.10;;;1.42;;
19280;SDS011;9774;52.034;5.342;2023-08-08T01:44:14;6.13;;;1.40;;
19280;SDS011;9774;52.034;5.342;2023-08-08T01:46:42;4.35;;;1.45;;
19280;SDS011;9774;52.034;5.342;2023-08-08T01:49:11;5.65;;;1.40;;
19280;SDS011;9774;52.034;5.342;2023-08-08T01:51:38;3.10;;;1.35;;
19280;SDS011;9774;52.034;5.342;2023-08-08T01:54:05;6.20;;;1.92;;
19280;SDS011;9774;52.034;5.342;2023-08-08T01:56:33;4.88;;;1.17;;
19280;SDS011;9774;52.034;5.342;2023-08-08T01:59:00;5.60;;;1.90;;
19280;SDS011;9774;52.034;5.342;2023-08-08T02:01:27;3.53;;;1.42;;
19280;SDS011;9774;52.034;5.342;2023-08-08T02:03:54;5.00;;;1.58;;
19280;SDS011;9774;52.034;5.342;2023-08-08T02:06:21;4.43;;;1.33;;
19280;SDS011;9774;52.034;5.342;2023-08-08T02:08:48;5.70;;;1.40;;
19280;SDS011;9774;52.034;5.342;2023-08-08T02:11:15;5.93;;;1.70;;
19280;SDS011;9774;52.034;5.342;2023-08-08T02:13:43;3.97;;;2.03;;
19280;SDS011;9774;52.034;5.342;2023-08-08T02:16:10;4.57;;;1.55;;
19280;SDS011;9774;52.034;5.342;2023-08-08T02:18:37;4.88;;;1.17;;
19280;SDS011;9774;52.034;5.342;2023-08-08T02:21:06;4.97;;;1.65;;
19280;SDS011;9774;52.034;5.342;2023-08-08T02:23:33;4.35;;;1.65;;
19280;SDS011;9774;52.034;5.342;2023-08-08T02:26:00;4.53;;;1.70;;
19280;SDS011;9774;52.034;5.342;2023-08-08T02:28:27;2.75;;;1.60;;
19280;SDS011;9774;52.034;5.342;2023-08-08T02:30:55;6.60;;;1.58;;
19280;SDS011;9774;52.034;5.342;2023-08-08T02:33:22;3.50;;;2.00;;
19280;SDS011;9774;52.034;5.342;2023-08-08T02:35:49;6.63;;;1.95;;
19280;SDS011;9774;52.034;5.342;2023-08-08T02:38:16;9.02;;;2.00;;
19280;SDS011;9774;52.034;5.342;2023-08-08T02:40:43;5.68;;;2.55;;
19280;SDS011;9774;52.034;5.342;2023-08-08T02:43:10;5.28;;;1.63;;
19280;SDS011;9774;52.034;5.342;2023-08-08T02:45:37;4.18;;;1.52;;
19280;SDS011;9774;52.034;5.342;2023-08-08T02:48:06;4.43;;;1.88;;
19280;SDS011;9774;52.034;5.342;2023-08-08T02:50:33;3.10;;;1.58;;
19280;SDS011;9774;52.034;5.342;2023-08-08T02:53:00;3.25;;;1.45;;
19280;SDS011;9774;52.034;5.342;2023-08-08T02:55:27;9.55;;;2.08;;
19280;SDS011;9774;52.034;5.342;2023-08-08T02:57:54;4.65;;;1.67;;
19280;SDS011;9774;52.034;5.342;2023-08-08T03:00:21;5.13;;;1.83;;
19280;SDS011;9774;52.034;5.342;2023-08-08T03:02:48;4.63;;;1.65;;
19280;SDS011;9774;52.034;5.342;2023-08-08T03:05:16;3.95;;;1.80;;
19280;SDS011;9774;52.034;5.342;2023-08-08T03:07:43;3.97;;;1.58;;
19280;SDS011;9774;52.034;5.342;2023-08-08T03:10:10;3.25;;;1.90;;
19280;SDS011;9774;52.034;5.342;2023-08-08T03:12:38;3.35;;;1.73;;
19280;SDS011;9774;52.034;5.342;2023-08-08T03:15:07;2.40;;;1.67;;
19280;SDS011;9774;52.034;5.342;2023-08-08T03:17:35;3.58;;;1.52;;
19280;SDS011;9774;52.034;5.342;2023-08-08T03:20:02;6.15;;;2.22;;
19280;SDS011;9774;52.034;5.342;2023-08-08T03:22:33;6.50;;;1.83;;
19280;SDS011;9774;52.034;5.342;2023-08-08T03:25:00;7.38;;;2.10;;
19280;SDS011;9774;52.034;5.342;2023-08-08T03:27:29;4.70;;;2.22;;
19280;SDS011;9774;52.034;5.342;2023-08-08T03:29:56;4.63;;;1.73;;
19280;SDS011;9774;52.034;5.342;2023-08-08T03:32:23;3.08;;;1.75;;
19280;SDS011;9774;52.034;5.342;2023-08-08T03:34:50;2.97;;;1.67;;
19280;SDS011;9774;52.034;5.342;2023-08-08T03:37:17;4.47;;;2.25;;
19280;SDS011;9774;52.034;5.342;2023-08-08T03:39:45;6.43;;;2.25;;
19280;SDS011;9774;52.034;5.342;2023-08-08T03:42:12;8.50;;;2.55;;
19280;SDS011;9774;52.034;5.342;2023-08-08T03:44:39;3.47;;;1.80;;
19280;SDS011;9774;52.034;5.342;2023-08-08T03:47:06;4.55;;;2.10;;
19280;SDS011;9774;52.034;5.342;2023-08-08T03:49:33;4.30;;;1.75;;
19280;SDS011;9774;52.034;5.342;2023-08-08T03:52:00;2.88;;;1.70;;
19280;SDS011;9774;52.034;5.342;2023-08-08T03:54:27;4.53;;;2.10;;
19280;SDS011;9774;52.034;5.342;2023-08-08T03:56:55;3.20;;;1.67;;
19280;SDS011;9774;52.034;5.342;2023-08-08T03:59:22;3.92;;;2.35;;
19280;SDS011;9774;52.034;5.342;2023-08-08T04:01:49;2.83;;;1.63;;
19280;SDS011;9774;52.034;5.342;2023-08-08T04:04:16;4.30;;;2.50;;
19280;SDS011;9774;52.034;5.342;2023-08-08T04:06:43;3.88;;;1.80;;
19280;SDS011;9774;52.034;5.342;2023-08-08T04:09:10;4.28;;;2.47;;
19280;SDS011;9774;52.034;5.342;2023-08-08T04:11:37;5.75;;;2.22;;
19280;SDS011;9774;52.034;5.342;2023-08-08T04:14:05;3.03;;;2.15;;
19280;SDS011;9774;52.034;5.342;2023-08-08T04:16:32;4.63;;;2.20;;
19280;SDS011;9774;52.034;5.342;2023-08-08T04:18:59;4.03;;;2.00;;
19280;SDS011;9774;52.034;5.342;2023-08-08T04:21:28;3.50;;;2.58;;
19280;SDS011;9774;52.034;5.342;2023-08-08T04:23:57;5.40;;;2.40;;
19280;SDS011;9774;52.034;5.342;2023-08-08T04:26:24;5.28;;;2.50;;
19280;SDS011;9774;52.034;5.342;2023-08-08T04:28:51;5.38;;;1.85;;
19280;SDS011;9774;52.034;5.342;2023-08-08T04:31:20;4.95;;;2.30;;
19280;SDS011;9774;52.034;5.342;2023-08-08T04:33:49;5.15;;;2.45;;
19280;SDS011;9774;52.034;5.342;2023-08-08T04:36:16;7.43;;;2.22;;
19280;SDS011;9774;52.034;5.342;2023-08-08T04:38:43;4.70;;;2.13;;
19280;SDS011;9774;52.034;5.342;2023-08-08T04:41:10;5.10;;;2.63;;
19280;SDS011;9774;52.034;5.342;2023-08-08T04:43:37;3.53;;;2.15;;
19280;SDS011;9774;52.034;5.342;2023-08-08T04:46:04;5.10;;;2.35;;
19280;SDS011;9774;52.034;5.342;2023-08-08T04:48:32;4.60;;;2.25;;
19280;SDS011;9774;52.034;5.342;2023-08-08T04:50:59;3.38;;;2.00;;
19280;SDS011;9774;52.034;5.342;2023-08-08T04:53:26;7.10;;;2.30;;
19280;SDS011;9774;52.034;5.342;2023-08-08T04:55:53;5.47;;;2.03;;
19280;SDS011;9774;52.034;5.342;2023-08-08T04:58:20;4.65;;;1.90;;
19280;SDS011;9774;52.034;5.342;2023-08-08T05:00:47;4.68;;;2.10;;
19280;SDS011;9774;52.034;5.342;2023-08-08T05:03:15;3.55;;;1.98;;
19280;SDS011;9774;52.034;5.342;2023-08-08T05:05:44;3.00;;;1.95;;
19280;SDS011;9774;52.034;5.342;2023-08-08T05:08:11;5.40;;;1.80;;
19280;SDS011;9774;52.034;5.342;2023-08-08T05:10:38;3.90;;;1.90;;
19280;SDS011;9774;52.034;5.342;2023-08-08T05:13:05;2.78;;;1.90;;
19280;SDS011;9774;52.034;5.342;2023-08-08T05:15:33;4.30;;;1.98;;
19280;SDS011;9774;52.034;5.342;2023-08-08T05:17:59;4.20;;;1.75;;
19280;SDS011;9774;52.034;5.342;2023-08-08T05:20:26;4.13;;;1.88;;
19280;SDS011;9774;52.034;5.342;2023-08-08T05:22:55;4.97;;;1.60;;
19280;SDS011;9774;52.034;5.342;2023-08-08T05:25:22;5.28;;;1.80;;
19280;SDS011;9774;52.034;5.342;2023-08-08T05:27:49;2.88;;;1.23;;
19280;SDS011;9774;52.034;5.342;2023-08-08T05:30:16;5.93;;;1.45;;
19280;SDS011;9774;52.034;5.342;2023-08-08T05:32:43;2.92;;;1.10;;
19280;SDS011;9774;52.034;5.342;2023-08-08T05:35:10;5.32;;;1.83;;
19280;SDS011;9774;52.034;5.342;2023-08-08T05:37:36;1.77;;;1.27;;
19280;SDS011;9774;52.034;5.342;2023-08-08T05:40:05;3.97;;;1.30;;
19280;SDS011;9774;52.034;5.342;2023-08-08T05:42:35;1.63;;;1.02;;
19280;SDS011;9774;52.034;5.342;2023-08-08T05:45:02;2.05;;;1.33;;
19280;SDS011;9774;52.034;5.342;2023-08-08T05:47:30;2.25;;;1.15;;
19280;SDS011;9774;52.034;5.342;2023-08-08T05:49:58;2.83;;;1.02;;
19280;SDS011;9774;52.034;5.342;2023-08-08T05:52:25;1.23;;;0.60;;
19280;SDS011;9774;52.034;5.342;2023-08-08T05:54:52;1.63;;;1.02;;
19280;SDS011;9774;52.034;5.342;2023-08-08T05:57:20;3.40;;;0.77;;
19280;SDS011;9774;52.034;5.342;2023-08-08T05:59:51;2.67;;;0.93;;
19280;SDS011;9774;52.034;5.342;2023-08-08T06:02:18;3.20;;;0.90;;
19280;SDS011;9774;52.034;5.342;2023-08-08T06:04:45;1.63;;;0.80;;
19280;SDS011;9774;52.034;5.342;2023-08-08T06:07:22;4.65;;;1.48;;
19280;SDS011;9774;52.034;5.342;2023-08-08T06:09:49;1.33;;;0.63;;
19280;SDS011;9774;52.034;5.342;2023-08-08T06:12:17;2.15;;;0.60;;
19280;SDS011;9774;52.034;5.342;2023-08-08T06:14:45;1.50;;;0.68;;
19280;SDS011;9774;52.034;5.342;2023-08-08T06:17:12;2.15;;;1.27;;
19280;SDS011;9774;52.034;5.342;2023-08-08T06:19:39;1.38;;;0.80;;
19280;SDS011;9774;52.034;5.342;2023-08-08T06:22:06;1.70;;;0.85;;
19280;SDS011;9774;52.034;5.342;2023-08-08T06:24:34;2.25;;;0.75;;
19280;SDS011;9774;52.034;5.342;2023-08-08T06:27:01;0.85;;;0.55;;
19280;SDS011;9774;52.034;5.342;2023-08-08T06:29:28;2.50;;;0.65;;
19280;SDS011;9774;52.034;5.342;2023-08-08T06:31:57;1.38;;;0.50;;
19280;SDS011;9774;52.034;5.342;2023-08-08T06:34:24;0.73;;;0.55;;
19280;SDS011;9774;52.034;5.342;2023-08-08T06:36:51;1.35;;;0.70;;
19280;SDS011;9774;52.034;5.342;2023-08-08T06:39:18;2.78;;;0.98;;
19280;SDS011;9774;52.034;5.342;2023-08-08T06:41:46;2.70;;;0.75;;
19280;SDS011;9774;52.034;5.342;2023-08-08T06:44:13;2.05;;;0.75;;
19280;SDS011;9774;52.034;5.342;2023-08-08T06:46:41;1.73;;;0.50;;
19280;SDS011;9774;52.034;5.342;2023-08-08T06:49:09;3.85;;;0.73;;
19280;SDS011;9774;52.034;5.342;2023-08-08T06:51:36;0.73;;;0.40;;
19280;SDS011;9774;52.034;5.342;2023-08-08T06:54:03;1.23;;;0.50;;
19280;SDS011;9774;52.034;5.342;2023-08-08T06:56:31;2.05;;;0.57;;
19280;SDS011;9774;52.034;5.342;2023-08-08T06:58:58;3.10;;;0.73;;
19280;SDS011;9774;52.034;5.342;2023-08-08T07:01:25;2.75;;;0.40;;
19280;SDS011;9774;52.034;5.342;2023-08-08T07:03:53;1.50;;;0.60;;
19280;SDS011;9774;52.034;5.342;2023-08-08T07:06:21;1.65;;;0.60;;
19280;SDS011;9774;52.034;5.342;2023-08-08T07:08:48;3.30;;;1.00;;
19280;SDS011;9774;52.034;5.342;2023-08-08T07:11:15;3.22;;;0.70;;
19280;SDS011;9774;52.034;5.342;2023-08-08T07:13:42;2.03;;;0.65;;
19280;SDS011;9774;52.034;5.342;2023-08-08T07:16:09;2.78;;;0.70;;
19280;SDS011;9774;52.034;5.342;2023-08-08T07:18:36;1.77;;;0.43;;
19280;SDS011;9774;52.034;5.342;2023-08-08T07:21:05;1.70;;;0.63;;
19280;SDS011;9774;52.034;5.342;2023-08-08T07:23:33;1.92;;;0.65;;
19280;SDS011;9774;52.034;5.342;2023-08-08T07:26:00;1.50;;;0.52;;
19280;SDS011;9774;52.034;5.342;2023-08-08T07:28:27;1.17;;;0.40;;
19280;SDS011;9774;52.034;5.342;2023-08-08T07:30:54;1.13;;;0.47;;
19280;SDS011;9774;52.034;5.342;2023-08-08T07:33:21;1.90;;;0.40;;
19280;SDS011;9774;52.034;5.342;2023-08-08T07:35:49;1.80;;;0.35;;
19280;SDS011;9774;52.034;5.342;2023-08-08T07:38:16;1.23;;;0.50;;
19280;SDS011;9774;52.034;5.342;2023-08-08T07:40:45;2.95;;;0.40;;
19280;SDS011;9774;52.034;5.342;2023-08-08T07:43:13;0.63;;;0.40;;
19280;SDS011;9774;52.034;5.342;2023-08-08T07:45:40;2.78;;;0.60;;
19280;SDS011;9774;52.034;5.342;2023-08-08T07:48:07;0.70;;;0.30;;
19280;SDS011;9774;52.034;5.342;2023-08-08T07:50:35;1.25;;;0.30;;
19280;SDS011;9774;52.034;5.342;2023-08-08T07:53:02;3.45;;;0.52;;
19280;SDS011;9774;52.034;5.342;2023-08-08T07:55:29;1.02;;;0.50;;
19280;SDS011;9774;52.034;5.342;2023-08-08T07:57:58;1.23;;;0.40;;
19280;SDS011;9774;52.034;5.342;2023-08-08T08:00:25;0.50;;;0.30;;
19280;SDS011;9774;52.034;5.342;2023-08-08T08:02:52;0.80;;;0.30;;
19280;SDS011;9774;52.034;5.342;2023-08-08T08:05:19;1.20;;;0.40;;
19280;SDS011;9774;52.034;5.342;2023-08-08T08:07:47;6.38;;;0.63;;
19280;SDS011;9774;52.034;5.342;2023-08-08T08:10:15;2.17;;;0.63;;
19280;SDS011;9774;52.034;5.342;2023-08-08T08:12:42;1.23;;;0.50;;
19280;SDS011;9774;52.034;5.342;2023-08-08T08:15:10;0.65;;;0.30;;
19280;SDS011;9774;52.034;5.342;2023-08-08T08:17:39;0.50;;;0.20;;
19280;SDS011;9774;52.034;5.342;2023-08-08T08:20:07;0.95;;;0.25;;
19280;SDS011;9774;52.034;5.342;2023-08-08T08:22:37;0.55;;;0.17;;
19280;SDS011;9774;52.034;5.342;2023-08-08T08:25:04;1.73;;;0.30;;
19280;SDS011;9774;52.034;5.342;2023-08-08T08:27:34;0.63;;;0.40;;
19280;SDS011;9774;52.034;5.342;2023-08-08T08:30:02;3.75;;;0.50;;
19280;SDS011;9774;52.034;5.342;2023-08-08T08:32:32;0.30;;;0.20;;
19280;SDS011;9774;52.034;5.342;2023-08-08T08:35:00;0.50;;;0.30;;
19280;SDS011;9774;52.034;5.342;2023-08-08T08:37:28;0.30;;;0.20;;
19280;SDS011;9774;52.034;5.342;2023-08-08T08:39:56;1.42;;;0.45;;
19280;SDS011;9774;52.034;5.342;2023-08-08T08:42:23;2.72;;;0.50;;
19280;SDS011;9774;52.034;5.342;2023-08-08T08:44:50;0.95;;;0.45;;
19280;SDS011;9774;52.034;5.342;2023-08-08T08:47:23;0.35;;;0.20;;
19280;SDS011;9774;52.034;5.342;2023-08-08T08:49:53;0.57;;;0.25;;
19280;SDS011;9774;52.034;5.342;2023-08-08T08:52:20;1.40;;;0.30;;
19280;SDS011;9774;52.034;5.342;2023-08-08T08:54:48;3.20;;;0.40;;
19280;SDS011;9774;52.034;5.342;2023-08-08T08:57:15;0.85;;;0.25;;
19280;SDS011;9774;52.034;5.342;2023-08-08T08:59:42;0.95;;;0.30;;
19280;SDS011;9774;52.034;5.342;2023-08-08T09:02:09;0.50;;;0.40;;
19280;SDS011;9774;52.034;5.342;2023-08-08T09:04:37;0.60;;;0.45;;
19280;SDS011;9774;52.034;5.342;2023-08-08T09:07:07;0.77;;;0.28;;
19280;SDS011;9774;52.034;5.342;2023-08-08T09:09:36;0.57;;;0.28;;
19280;SDS011;9774;52.034;5.342;2023-08-08T09:12:03;0.50;;;0.38;;
19280;SDS011;9774;52.034;5.342;2023-08-08T09:14:31;1.15;;;0.30;;
19280;SDS011;9774;52.034;5.342;2023-08-08T09:16:58;0.98;;;0.35;;
19280;SDS011;9774;52.034;5.342;2023-08-08T09:19:25;0.10;;;0.10;;
19280;SDS011;9774;52.034;5.342;2023-08-08T09:21:52;0.50;;;0.30;;
19280;SDS011;9774;52.034;5.342;2023-08-08T09:24:21;0.20;;;0.20;;
19280;SDS011;9774;52.034;5.342;2023-08-08T09:26:48;1.00;;;0.40;;
19280;SDS011;9774;52.034;5.342;2023-08-08T09:29:15;0.57;;;0.30;;
19280;SDS011;9774;52.034;5.342;2023-08-08T09:31:42;0.43;;;0.25;;
19280;SDS011;9774;52.034;5.342;2023-08-08T09:34:09;0.50;;;0.43;;
19280;SDS011;9774;52.034;5.342;2023-08-08T09:36:36;1.98;;;0.28;;
19280;SDS011;9774;52.034;5.342;2023-08-08T09:39:04;0.82;;;0.20;;
19280;SDS011;9774;52.034;5.342;2023-08-08T09:41:33;0.30;;;0.20;;
19280;SDS011;9774;52.034;5.342;2023-08-08T09:44:01;0.55;;;0.30;;
19280;SDS011;9774;52.034;5.342;2023-08-08T09:46:29;0.43;;;0.25;;
19280;SDS011;9774;52.034;5.342;2023-08-08T09:48:57;2.35;;;0.40;;
19280;SDS011;9774;52.034;5.342;2023-08-08T09:51:25;2.00;;;0.40;;
19280;SDS011;9774;52.034;5.342;2023-08-08T09:53:53;0.60;;;0.40;;
19280;SDS011;9774;52.034;5.342;2023-08-08T09:56:21;0.40;;;0.30;;
19280;SDS011;9774;52.034;5.342;2023-08-08T09:58:51;1.85;;;0.32;;
19280;SDS011;9774;52.034;5.342;2023-08-08T10:01:19;0.50;;;0.38;;
19280;SDS011;9774;52.034;5.342;2023-08-08T10:03:48;0.50;;;0.20;;
19280;SDS011;9774;52.034;5.342;2023-08-08T10:06:18;1.15;;;0.30;;
19280;SDS011;9774;52.034;5.342;2023-08-08T10:08:45;1.40;;;0.88;;
19280;SDS011;9774;52.034;5.342;2023-08-08T10:11:13;5.13;;;0.82;;
19280;SDS011;9774;52.034;5.342;2023-08-08T10:13:47;0.55;;;0.50;;
19280;SDS011;9774;52.034;5.342;2023-08-08T10:16:17;0.47;;;0.20;;
19280;SDS011;9774;52.034;5.342;2023-08-08T10:18:44;1.63;;;0.40;;
19280;SDS011;9774;52.034;5.342;2023-08-08T10:21:20;0.82;;;0.38;;
19280;SDS011;9774;52.034;5.342;2023-08-08T10:23:49;1.85;;;0.40;;
19280;SDS011;9774;52.034;5.342;2023-08-08T10:26:27;1.67;;;0.57;;
19280;SDS011;9774;52.034;5.342;2023-08-08T10:28:55;0.93;;;0.57;;
19280;SDS011;9774;52.034;5.342;2023-08-08T10:31:24;1.20;;;0.30;;
19280;SDS011;9774;52.034;5.342;2023-08-08T10:34:00;0.82;;;0.60;;
19280;SDS011;9774;52.034;5.342;2023-08-08T10:39:16;0.70;;;0.43;;
19280;SDS011;9774;52.034;5.342;2023-08-08T10:41:44;0.40;;;0.30;;
19280;SDS011;9774;52.034;5.342;2023-08-08T10:44:13;0.68;;;0.60;;
19280;SDS011;9774;52.034;5.342;2023-08-08T10:46:49;0.55;;;0.50;;
19280;SDS011;9774;52.034;5.342;2023-08-08T10:49:18;1.15;;;0.43;;
19280;SDS011;9774;52.034;5.342;2023-08-08T10:51:46;1.48;;;0.50;;
19280;SDS011;9774;52.034;5.342;2023-08-08T10:54:18;0.88;;;0.60;;
19280;SDS011;9774;52.034;5.342;2023-08-08T10:56:48;0.68;;;0.40;;
19280;SDS011;9774;52.034;5.342;2023-08-08T10:59:17;1.15;;;0.40;;
19280;SDS011;9774;52.034;5.342;2023-08-08T11:01:47;1.20;;;0.40;;
19280;SDS011;9774;52.034;5.342;2023-08-08T11:04:18;0.60;;;0.40;;
19280;SDS011;9774;52.034;5.342;2023-08-08T11:06:48;1.58;;;0.68;;
19280;SDS011;9774;52.034;5.342;2023-08-08T11:09:16;8.15;;;0.82;;
19280;SDS011;9774;52.034;5.342;2023-08-08T11:11:43;0.50;;;0.50;;
19280;SDS011;9774;52.034;5.342;2023-08-08T11:14:12;0.82;;;0.40;;
19280;SDS011;9774;52.034;5.342;2023-08-08T11:16:41;2.92;;;0.50;;
19280;SDS011;9774;52.034;5.342;2023-08-08T11:19:11;1.15;;;0.50;;
19280;SDS011;9774;52.034;5.342;2023-08-08T11:21:39;1.45;;;0.40;;
19280;SDS011;9774;52.034;5.342;2023-08-08T11:24:09;0.70;;;0.45;;
19280;SDS011;9774;52.034;5.342;2023-08-08T11:26:37;0.52;;;0.40;;
19280;SDS011;9774;52.034;5.342;2023-08-08T11:29:06;1.73;;;0.40;;
19280;SDS011;9774;52.034;5.342;2023-08-08T11:31:34;0.98;;;0.40;;
19280;SDS011;9774;52.034;5.342;2023-08-08T11:34:01;1.38;;;0.68;;
19280;SDS011;9774;52.034;5.342;2023-08-08T11:36:31;0.60;;;0.40;;
19280;SDS011;9774;52.034;5.342;2023-08-08T11:39:01;0.85;;;0.40;;
19280;SDS011;9774;52.034;5.342;2023-08-08T11:41:33;0.65;;;0.32;;
19280;SDS011;9774;52.034;5.342;2023-08-08T11:44:02;0.68;;;0.45;;
19280;SDS011;9774;52.034;5.342;2023-08-08T11:46:30;1.08;;;0.63;;
19280;SDS011;9774;52.034;5.342;2023-08-08T11:49:01;1.55;;;0.70;;
19280;SDS011;9774;52.034;5.342;2023-08-08T11:51:32;2.78;;;0.70;;
19280;SDS011;9774;52.034;5.342;2023-08-08T11:54:01;1.70;;;0.52;;
19280;SDS011;9774;52.034;5.342;2023-08-08T11:56:32;0.40;;;0.30;;
19280;SDS011;9774;52.034;5.342;2023-08-08T11:59:00;1.85;;;0.70;;
19280;SDS011;9774;52.034;5.342;2023-08-08T12:01:29;0.90;;;0.43;;
19280;SDS011;9774;52.034;5.342;2023-08-08T12:04:03;1.73;;;0.60;;
19280;SDS011;9774;52.034;5.342;2023-08-08T12:06:36;0.60;;;0.50;;
19280;SDS011;9774;52.034;5.342;2023-08-08T12:09:04;0.55;;;0.40;;
19280;SDS011;9774;52.034;5.342;2023-08-08T12:11:33;0.47;;;0.40;;
19280;SDS011;9774;52.034;5.342;2023-08-08T12:14:02;1.10;;;0.50;;
19280;SDS011;9774;52.034;5.342;2023-08-08T12:16:30;0.75;;;0.40;;
19280;SDS011;9774;52.034;5.342;2023-08-08T12:18:57;0.55;;;0.45;;
19280;SDS011;9774;52.034;5.342;2023-08-08T12:21:27;1.02;;;0.52;;
19280;SDS011;9774;52.034;5.342;2023-08-08T12:23:56;0.90;;;0.43;;
19280;SDS011;9774;52.034;5.342;2023-08-08T12:26:22;2.65;;;0.70;;
19280;SDS011;9774;52.034;5.342;2023-08-08T12:28:50;0.57;;;0.38;;
19280;SDS011;9774;52.034;5.342;2023-08-08T12:31:19;0.70;;;0.47;;
19280;SDS011;9774;52.034;5.342;2023-08-08T12:33:46;2.70;;;0.73;;
19280;SDS011;9774;52.034;5.342;2023-08-08T12:36:13;1.13;;;0.50;;
19280;SDS011;9774;52.034;5.342;2023-08-08T12:38:40;0.82;;;0.50;;
19280;SDS011;9774;52.034;5.342;2023-08-08T12:41:09;1.67;;;0.50;;
19280;SDS011;9774;52.034;5.342;2023-08-08T12:43:36;0.95;;;0.30;;
19280;SDS011;9774;52.034;5.342;2023-08-08T12:46:03;0.88;;;0.40;;
19280;SDS011;9774;52.034;5.342;2023-08-08T12:48:30;2.72;;;0.52;;
19280;SDS011;9774;52.034;5.342;2023-08-08T12:50:57;0.85;;;0.30;;
19280;SDS011;9774;52.034;5.342;2023-08-08T12:53:24;1.08;;;0.40;;
19280;SDS011;9774;52.034;5.342;2023-08-08T12:55:51;0.60;;;0.43;;
19280;SDS011;9774;52.034;5.342;2023-08-08T12:58:19;0.75;;;0.50;;
19280;SDS011;9774;52.034;5.342;2023-08-08T13:00:46;0.55;;;0.40;;
19280;SDS011;9774;52.034;5.342;2023-08-08T13:03:13;0.38;;;0.35;;
19280;SDS011;9774;52.034;5.342;2023-08-08T13:05:40;1.73;;;0.50;;
19280;SDS011;9774;52.034;5.342;2023-08-08T13:08:07;0.90;;;0.50;;
19280;SDS011;9774;52.034;5.342;2023-08-08T13:10:34;0.50;;;0.38;;
19280;SDS011;9774;52.034;5.342;2023-08-08T13:13:01;0.90;;;0.38;;
19280;SDS011;9774;52.034;5.342;2023-08-08T13:15:30;2.00;;;0.45;;
19280;SDS011;9774;52.034;5.342;2023-08-08T13:17:57;2.20;;;0.90;;
19280;SDS011;9774;52.034;5.342;2023-08-08T13:20:24;0.75;;;0.40;;
19280;SDS011;9774;52.034;5.342;2023-08-08T13:22:52;0.98;;;0.40;;
19280;SDS011;9774;52.034;5.342;2023-08-08T13:25:19;1.15;;;0.60;;
19280;SDS011;9774;52.034;5.342;2023-08-08T13:27:46;1.55;;;0.50;;
19280;SDS011;9774;52.034;5.342;2023-08-08T13:30:13;1.13;;;0.40;;
19280;SDS011;9774;52.034;5.342;2023-08-08T13:32:42;1.85;;;0.50;;
19280;SDS011;9774;52.034;5.342;2023-08-08T13:35:10;1.65;;;0.60;;
19280;SDS011;9774;52.034;5.342;2023-08-08T13:37:36;1.25;;;0.65;;
19280;SDS011;9774;52.034;5.342;2023-08-08T13:40:04;1.17;;;0.30;;
19280;SDS011;9774;52.034;5.342;2023-08-08T13:42:32;1.65;;;0.60;;
19280;SDS011;9774;52.034;5.342;2023-08-08T13:44:59;1.77;;;0.60;;
19280;SDS011;9774;52.034;5.342;2023-08-08T13:47:26;0.55;;;0.32;;
19280;SDS011;9774;52.034;5.342;2023-08-08T13:49:54;1.60;;;0.73;;
19280;SDS011;9774;52.034;5.342;2023-08-08T13:52:21;0.88;;;0.43;;
19280;SDS011;9774;52.034;5.342;2023-08-08T13:54:49;3.10;;;0.60;;
19280;SDS011;9774;52.034;5.342;2023-08-08T13:57:16;2.75;;;0.40;;
19280;SDS011;9774;52.034;5.342;2023-08-08T13:59:43;2.35;;;0.63;;
19280;SDS011;9774;52.034;5.342;2023-08-08T14:02:10;0.93;;;0.73;;
19280;SDS011;9774;52.034;5.342;2023-08-08T14:04:37;0.73;;;0.40;;
19280;SDS011;9774;52.034;5.342;2023-08-08T14:07:05;0.93;;;0.40;;
19280;SDS011;9774;52.034;5.342;2023-08-08T14:09:32;1.48;;;0.60;;
19280;SDS011;9774;52.034;5.342;2023-08-08T14:11:59;0.60;;;0.35;;
19280;SDS011;9774;52.034;5.342;2023-08-08T14:14:26;0.73;;;0.30;;
19280;SDS011;9774;52.034;5.342;2023-08-08T14:16:53;0.88;;;0.47;;
19280;SDS011;9774;52.034;5.342;2023-08-08T14:19:20;1.52;;;0.40;;
19280;SDS011;9774;52.034;5.342;2023-08-08T14:21:47;1.15;;;0.52;;
19280;SDS011;9774;52.034;5.342;2023-08-08T14:24:16;0.73;;;0.50;;
19280;SDS011;9774;52.034;5.342;2023-08-08T14:26:43;0.68;;;0.40;;
19280;SDS011;9774;52.034;5.342;2023-08-08T14:29:10;2.28;;;0.68;;
19280;SDS011;9774;52.034;5.342;2023-08-08T14:31:37;1.05;;;0.60;;
19280;SDS011;9774;52.034;5.342;2023-08-08T14:34:04;1.85;;;0.55;;
19280;SDS011;9774;52.034;5.342;2023-08-08T14:36:31;0.82;;;0.65;;
19280;SDS011;9774;52.034;5.342;2023-08-08T14:38:58;0.95;;;0.52;;
19280;SDS011;9774;52.034;5.342;2023-08-08T14:41:27;1.42;;;0.57;;
19280;SDS011;9774;52.034;5.342;2023-08-08T14:43:54;0.70;;;0.60;;
19280;SDS011;9774;52.034;5.342;2023-08-08T14:46:20;1.83;;;0.60;;
19280;SDS011;9774;52.034;5.342;2023-08-08T14:48:47;3.70;;;1.00;;
19280;SDS011;9774;52.034;5.342;2023-08-08T14:51:14;1.50;;;0.70;;
19280;SDS011;9774;52.034;5.342;2023-08-08T14:53:44;1.15;;;0.50;;
19280;SDS011;9774;52.034;5.342;2023-08-08T14:56:11;1.23;;;0.70;;
19280;SDS011;9774;52.034;5.342;2023-08-08T14:58:39;3.75;;;0.70;;
19280;SDS011;9774;52.034;5.342;2023-08-08T15:01:06;1.30;;;0.52;;
19280;SDS011;9774;52.034;5.342;2023-08-08T15:03:33;0.50;;;0.40;;
19280;SDS011;9774;52.034;5.342;2023-08-08T15:06:00;1.35;;;0.57;;
19280;SDS011;9774;52.034;5.342;2023-08-08T15:08:27;0.60;;;0.50;;